Terminal Aerodrome Forecast
Issued by NWS Duluth, MN

Home | Current Version | Previous Version | Text Only | Print | Product List | Glossary On
Versions: 1 2 3 4 5 6 7 8 9 10 11 12 13 14 15 16 17 18 19 20 21 22 23 24 25 26 27 28 29 30
000
FTUS43 KDLH 221000 AAD
TAFINL
TAF AMD
KINL 221011Z 2210/2306 34014KT P6SM VCSH BKN005 OVC008
     FM221600 34017G22KT P6SM BKN015
     FM221900 34016G24KT P6SM BKN050
     FM230000 34008KT P6SM SCT050=

USA.gov is the U.S. government's official web portal to all federal, state and local government web resources and services.